sensor_id;sensor_type;location;lat;lon;timestamp;P1;durP1;ratioP1;P2;durP2;ratioP2
12950;SDS011;6540;50.858;7.232;2023-05-23T00:00:57;3.03;;;2.73;;
12950;SDS011;6540;50.858;7.232;2023-05-23T00:03:23;2.83;;;2.60;;
12950;SDS011;6540;50.858;7.232;2023-05-23T00:05:49;3.03;;;2.63;;
12950;SDS011;6540;50.858;7.232;2023-05-23T00:08:15;2.50;;;2.27;;
12950;SDS011;6540;50.858;7.232;2023-05-23T00:10:41;3.03;;;2.30;;
12950;SDS011;6540;50.858;7.232;2023-05-23T00:13:06;2.50;;;2.27;;
12950;SDS011;6540;50.858;7.232;2023-05-23T00:15:33;2.60;;;2.20;;
12950;SDS011;6540;50.858;7.232;2023-05-23T00:18:01;3.40;;;2.43;;
12950;SDS011;6540;50.858;7.232;2023-05-23T00:20:26;1.90;;;1.70;;
12950;SDS011;6540;50.858;7.232;2023-05-23T00:22:52;3.33;;;2.80;;
12950;SDS011;6540;50.858;7.232;2023-05-23T00:25:18;1.77;;;1.67;;
12950;SDS011;6540;50.858;7.232;2023-05-23T00:27:46;1.83;;;1.63;;
12950;SDS011;6540;50.858;7.232;2023-05-23T00:30:11;2.33;;;2.10;;
12950;SDS011;6540;50.858;7.232;2023-05-23T00:32:36;2.10;;;2.00;;
12950;SDS011;6540;50.858;7.232;2023-05-23T00:35:02;2.67;;;2.23;;
12950;SDS011;6540;50.858;7.232;2023-05-23T00:37:27;2.90;;;2.57;;
12950;SDS011;6540;50.858;7.232;2023-05-23T00:39:53;2.43;;;2.20;;
12950;SDS011;6540;50.858;7.232;2023-05-23T00:42:18;2.03;;;1.83;;
12950;SDS011;6540;50.858;7.232;2023-05-23T00:44:43;2.47;;;2.27;;
12950;SDS011;6540;50.858;7.232;2023-05-23T00:47:09;2.80;;;2.60;;
12950;SDS011;6540;50.858;7.232;2023-05-23T00:49:37;3.10;;;2.57;;
12950;SDS011;6540;50.858;7.232;2023-05-23T00:52:03;3.33;;;3.03;;
12950;SDS011;6540;50.858;7.232;2023-05-23T00:54:29;2.67;;;2.47;;
12950;SDS011;6540;50.858;7.232;2023-05-23T00:56:55;2.93;;;2.40;;
12950;SDS011;6540;50.858;7.232;2023-05-23T00:59:23;1.93;;;1.83;;
12950;SDS011;6540;50.858;7.232;2023-05-23T01:01:49;3.70;;;2.37;;
12950;SDS011;6540;50.858;7.232;2023-05-23T01:04:16;2.40;;;2.20;;
12950;SDS011;6540;50.858;7.232;2023-05-23T01:06:43;2.80;;;2.40;;
12950;SDS011;6540;50.858;7.232;2023-05-23T01:09:10;3.27;;;2.97;;
12950;SDS011;6540;50.858;7.232;2023-05-23T01:11:49;2.37;;;2.13;;
12950;SDS011;6540;50.858;7.232;2023-05-23T01:14:20;2.20;;;2.10;;
12950;SDS011;6540;50.858;7.232;2023-05-23T01:16:54;2.50;;;2.30;;
12950;SDS011;6540;50.858;7.232;2023-05-23T01:22:10;4.13;;;3.17;;
12950;SDS011;6540;50.858;7.232;2023-05-23T01:24:45;2.27;;;2.07;;
12950;SDS011;6540;50.858;7.232;2023-05-23T01:28:02;2.83;;;2.60;;
12950;SDS011;6540;50.858;7.232;2023-05-23T01:30:16;2.30;;;2.10;;
12950;SDS011;6540;50.858;7.232;2023-05-23T01:32:45;2.83;;;2.53;;
12950;SDS011;6540;50.858;7.232;2023-05-23T01:35:12;2.93;;;2.70;;
12950;SDS011;6540;50.858;7.232;2023-05-23T01:37:44;2.57;;;2.37;;
12950;SDS011;6540;50.858;7.232;2023-05-23T01:40:10;4.70;;;3.13;;
12950;SDS011;6540;50.858;7.232;2023-05-23T01:42:36;2.43;;;2.10;;
12950;SDS011;6540;50.858;7.232;2023-05-23T01:45:01;2.40;;;2.20;;
12950;SDS011;6540;50.858;7.232;2023-05-23T01:47:27;3.17;;;2.27;;
12950;SDS011;6540;50.858;7.232;2023-05-23T01:49:53;2.70;;;2.50;;
12950;SDS011;6540;50.858;7.232;2023-05-23T01:52:21;2.90;;;2.63;;
12950;SDS011;6540;50.858;7.232;2023-05-23T01:54:47;3.70;;;3.23;;
12950;SDS011;6540;50.858;7.232;2023-05-23T01:57:14;3.77;;;3.47;;
12950;SDS011;6540;50.858;7.232;2023-05-23T01:59:40;5.13;;;2.60;;
12950;SDS011;6540;50.858;7.232;2023-05-23T02:02:05;2.60;;;2.40;;
12950;SDS011;6540;50.858;7.232;2023-05-23T02:04:31;2.93;;;2.60;;
12950;SDS011;6540;50.858;7.232;2023-05-23T02:06:56;4.23;;;2.93;;
12950;SDS011;6540;50.858;7.232;2023-05-23T02:09:21;1.63;;;1.53;;
12950;SDS011;6540;50.858;7.232;2023-05-23T02:11:47;2.00;;;1.90;;
12950;SDS011;6540;50.858;7.232;2023-05-23T02:14:12;2.50;;;1.87;;
12950;SDS011;6540;50.858;7.232;2023-05-23T02:16:38;2.53;;;2.23;;
12950;SDS011;6540;50.858;7.232;2023-05-23T02:19:03;2.37;;;2.17;;
12950;SDS011;6540;50.858;7.232;2023-05-23T02:21:28;3.40;;;2.87;;
12950;SDS011;6540;50.858;7.232;2023-05-23T02:23:55;2.60;;;2.40;;
12950;SDS011;6540;50.858;7.232;2023-05-23T02:26:21;3.10;;;2.60;;
12950;SDS011;6540;50.858;7.232;2023-05-23T02:28:46;2.40;;;2.17;;
12950;SDS011;6540;50.858;7.232;2023-05-23T02:31:11;2.83;;;2.63;;
12950;SDS011;6540;50.858;7.232;2023-05-23T02:33:37;2.90;;;2.60;;
12950;SDS011;6540;50.858;7.232;2023-05-23T02:36:02;2.60;;;2.33;;
12950;SDS011;6540;50.858;7.232;2023-05-23T02:38:27;2.77;;;2.57;;
12950;SDS011;6540;50.858;7.232;2023-05-23T02:40:54;2.20;;;2.00;;
12950;SDS011;6540;50.858;7.232;2023-05-23T02:43:21;2.43;;;2.23;;
12950;SDS011;6540;50.858;7.232;2023-05-23T02:45:47;2.47;;;2.27;;
12950;SDS011;6540;50.858;7.232;2023-05-23T02:48:12;2.20;;;2.03;;
12950;SDS011;6540;50.858;7.232;2023-05-23T02:50:37;2.77;;;2.57;;
12950;SDS011;6540;50.858;7.232;2023-05-23T02:53:03;7.43;;;3.20;;
12950;SDS011;6540;50.858;7.232;2023-05-23T02:55:28;2.60;;;2.40;;
12950;SDS011;6540;50.858;7.232;2023-05-23T02:57:55;2.57;;;2.37;;
12950;SDS011;6540;50.858;7.232;2023-05-23T03:00:22;2.50;;;2.30;;
12950;SDS011;6540;50.858;7.232;2023-05-23T03:02:48;3.10;;;2.90;;
12950;SDS011;6540;50.858;7.232;2023-05-23T03:05:13;2.27;;;2.17;;
12950;SDS011;6540;50.858;7.232;2023-05-23T03:07:39;3.23;;;2.60;;
12950;SDS011;6540;50.858;7.232;2023-05-23T03:10:04;1.90;;;1.80;;
12950;SDS011;6540;50.858;7.232;2023-05-23T03:12:30;2.33;;;2.13;;
12950;SDS011;6540;50.858;7.232;2023-05-23T03:14:56;1.77;;;1.67;;
12950;SDS011;6540;50.858;7.232;2023-05-23T03:17:23;1.47;;;1.37;;
12950;SDS011;6540;50.858;7.232;2023-05-23T03:19:49;2.93;;;2.43;;
12950;SDS011;6540;50.858;7.232;2023-05-23T03:22:15;2.83;;;2.63;;
12950;SDS011;6540;50.858;7.232;2023-05-23T03:24:41;2.33;;;2.13;;
12950;SDS011;6540;50.858;7.232;2023-05-23T03:27:06;1.80;;;1.70;;
12950;SDS011;6540;50.858;7.232;2023-05-23T03:29:32;2.60;;;2.40;;
12950;SDS011;6540;50.858;7.232;2023-05-23T03:31:57;2.13;;;1.93;;
12950;SDS011;6540;50.858;7.232;2023-05-23T03:34:23;1.80;;;1.70;;
12950;SDS011;6540;50.858;7.232;2023-05-23T03:36:50;2.03;;;1.87;;
12950;SDS011;6540;50.858;7.232;2023-05-23T03:39:16;2.50;;;2.00;;
12950;SDS011;6540;50.858;7.232;2023-05-23T03:41:41;1.40;;;1.30;;
12950;SDS011;6540;50.858;7.232;2023-05-23T03:44:06;1.80;;;1.53;;
12950;SDS011;6540;50.858;7.232;2023-05-23T03:46:32;1.10;;;1.10;;
12950;SDS011;6540;50.858;7.232;2023-05-23T03:48:57;1.83;;;1.60;;
12950;SDS011;6540;50.858;7.232;2023-05-23T03:51:41;1.27;;;1.17;;
12950;SDS011;6540;50.858;7.232;2023-05-23T03:54:06;1.87;;;1.77;;
12950;SDS011;6540;50.858;7.232;2023-05-23T03:56:31;1.33;;;1.23;;
12950;SDS011;6540;50.858;7.232;2023-05-23T03:58:57;1.47;;;1.40;;
12950;SDS011;6540;50.858;7.232;2023-05-23T04:01:22;2.03;;;1.83;;
12950;SDS011;6540;50.858;7.232;2023-05-23T04:03:47;2.20;;;1.77;;
12950;SDS011;6540;50.858;7.232;2023-05-23T04:06:13;2.20;;;2.07;;
12950;SDS011;6540;50.858;7.232;2023-05-23T04:08:38;2.00;;;1.43;;
12950;SDS011;6540;50.858;7.232;2023-05-23T04:11:06;1.80;;;1.70;;
12950;SDS011;6540;50.858;7.232;2023-05-23T04:13:31;1.60;;;1.50;;
12950;SDS011;6540;50.858;7.232;2023-05-23T04:15:58;2.37;;;2.10;;
12950;SDS011;6540;50.858;7.232;2023-05-23T04:18:26;2.30;;;2.10;;
12950;SDS011;6540;50.858;7.232;2023-05-23T04:20:52;1.70;;;1.57;;
12950;SDS011;6540;50.858;7.232;2023-05-23T04:23:18;2.03;;;1.93;;
12950;SDS011;6540;50.858;7.232;2023-05-23T04:25:43;1.57;;;1.30;;
12950;SDS011;6540;50.858;7.232;2023-05-23T04:28:09;2.10;;;2.00;;
12950;SDS011;6540;50.858;7.232;2023-05-23T04:30:35;1.63;;;1.53;;
12950;SDS011;6540;50.858;7.232;2023-05-23T04:33:01;2.23;;;2.03;;
12950;SDS011;6540;50.858;7.232;2023-05-23T04:35:26;3.00;;;2.27;;
12950;SDS011;6540;50.858;7.232;2023-05-23T04:37:58;2.23;;;1.90;;
12950;SDS011;6540;50.858;7.232;2023-05-23T04:40:23;2.33;;;2.13;;
12950;SDS011;6540;50.858;7.232;2023-05-23T04:42:49;1.63;;;1.53;;
12950;SDS011;6540;50.858;7.232;2023-05-23T04:45:19;2.30;;;1.80;;
12950;SDS011;6540;50.858;7.232;2023-05-23T04:47:44;8.00;;;1.80;;
12950;SDS011;6540;50.858;7.232;2023-05-23T04:50:10;2.30;;;2.13;;
12950;SDS011;6540;50.858;7.232;2023-05-23T04:52:36;3.27;;;2.23;;
12950;SDS011;6540;50.858;7.232;2023-05-23T04:55:01;2.87;;;2.57;;
12950;SDS011;6540;50.858;7.232;2023-05-23T04:57:27;2.77;;;1.80;;
12950;SDS011;6540;50.858;7.232;2023-05-23T04:59:52;2.70;;;2.03;;
12950;SDS011;6540;50.858;7.232;2023-05-23T05:02:18;2.40;;;2.20;;
12950;SDS011;6540;50.858;7.232;2023-05-23T05:04:43;2.67;;;2.47;;
12950;SDS011;6540;50.858;7.232;2023-05-23T05:07:09;1.20;;;1.20;;
12950;SDS011;6540;50.858;7.232;2023-05-23T05:09:35;2.53;;;2.33;;
12950;SDS011;6540;50.858;7.232;2023-05-23T05:12:01;2.23;;;1.97;;
12950;SDS011;6540;50.858;7.232;2023-05-23T05:14:26;2.53;;;2.33;;
12950;SDS011;6540;50.858;7.232;2023-05-23T05:16:51;1.80;;;1.70;;
12950;SDS011;6540;50.858;7.232;2023-05-23T05:19:18;2.80;;;2.60;;
12950;SDS011;6540;50.858;7.232;2023-05-23T05:21:44;1.70;;;1.60;;
12950;SDS011;6540;50.858;7.232;2023-05-23T05:24:10;2.30;;;2.10;;
12950;SDS011;6540;50.858;7.232;2023-05-23T05:26:36;3.23;;;2.93;;
12950;SDS011;6540;50.858;7.232;2023-05-23T05:29:01;2.93;;;2.63;;
12950;SDS011;6540;50.858;7.232;2023-05-23T05:31:29;3.23;;;2.90;;
12950;SDS011;6540;50.858;7.232;2023-05-23T05:33:55;2.87;;;2.67;;
12950;SDS011;6540;50.858;7.232;2023-05-23T05:36:20;3.50;;;3.20;;
12950;SDS011;6540;50.858;7.232;2023-05-23T05:38:46;1.60;;;1.50;;
12950;SDS011;6540;50.858;7.232;2023-05-23T05:41:11;2.60;;;2.40;;
12950;SDS011;6540;50.858;7.232;2023-05-23T05:43:37;3.63;;;2.17;;
12950;SDS011;6540;50.858;7.232;2023-05-23T05:46:03;2.70;;;2.43;;
12950;SDS011;6540;50.858;7.232;2023-05-23T05:48:28;2.47;;;2.27;;
12950;SDS011;6540;50.858;7.232;2023-05-23T05:50:53;2.67;;;2.00;;
12950;SDS011;6540;50.858;7.232;2023-05-23T05:53:19;2.83;;;2.63;;
12950;SDS011;6540;50.858;7.232;2023-05-23T05:55:44;2.43;;;2.23;;
12950;SDS011;6540;50.858;7.232;2023-05-23T05:58:09;2.27;;;1.90;;
12950;SDS011;6540;50.858;7.232;2023-05-23T06:00:35;2.43;;;2.23;;
12950;SDS011;6540;50.858;7.232;2023-05-23T06:03:06;3.53;;;2.83;;
12950;SDS011;6540;50.858;7.232;2023-05-23T06:05:32;2.67;;;2.07;;
12950;SDS011;6540;50.858;7.232;2023-05-23T06:07:58;2.30;;;2.13;;
12950;SDS011;6540;50.858;7.232;2023-05-23T06:10:23;2.13;;;2.00;;
12950;SDS011;6540;50.858;7.232;2023-05-23T06:12:49;2.30;;;2.10;;
12950;SDS011;6540;50.858;7.232;2023-05-23T06:15:14;1.43;;;1.33;;
12950;SDS011;6540;50.858;7.232;2023-05-23T06:17:40;1.80;;;1.70;;
12950;SDS011;6540;50.858;7.232;2023-05-23T06:20:06;4.83;;;2.20;;
12950;SDS011;6540;50.858;7.232;2023-05-23T06:22:45;2.07;;;1.97;;
12950;SDS011;6540;50.858;7.232;2023-05-23T06:25:10;2.43;;;2.23;;
12950;SDS011;6540;50.858;7.232;2023-05-23T06:27:36;2.13;;;1.77;;
12950;SDS011;6540;50.858;7.232;2023-05-23T06:30:03;2.60;;;2.40;;
12950;SDS011;6540;50.858;7.232;2023-05-23T06:32:29;2.23;;;2.03;;
12950;SDS011;6540;50.858;7.232;2023-05-23T06:34:54;1.90;;;1.80;;
12950;SDS011;6540;50.858;7.232;2023-05-23T06:37:20;2.10;;;1.97;;
12950;SDS011;6540;50.858;7.232;2023-05-23T06:39:45;2.93;;;2.73;;
12950;SDS011;6540;50.858;7.232;2023-05-23T06:42:11;3.23;;;3.00;;
12950;SDS011;6540;50.858;7.232;2023-05-23T06:44:36;3.67;;;3.00;;
12950;SDS011;6540;50.858;7.232;2023-05-23T06:47:02;2.93;;;2.63;;
12950;SDS011;6540;50.858;7.232;2023-05-23T06:49:27;3.03;;;2.30;;
12950;SDS011;6540;50.858;7.232;2023-05-23T06:51:52;4.87;;;3.50;;
12950;SDS011;6540;50.858;7.232;2023-05-23T06:54:18;4.20;;;3.73;;
12950;SDS011;6540;50.858;7.232;2023-05-23T06:56:43;4.90;;;3.63;;
12950;SDS011;6540;50.858;7.232;2023-05-23T06:59:09;3.17;;;2.70;;
12950;SDS011;6540;50.858;7.232;2023-05-23T07:01:34;4.43;;;3.10;;
12950;SDS011;6540;50.858;7.232;2023-05-23T07:04:00;4.27;;;3.10;;
12950;SDS011;6540;50.858;7.232;2023-05-23T07:06:25;5.37;;;3.17;;
12950;SDS011;6540;50.858;7.232;2023-05-23T07:08:53;3.40;;;3.10;;
12950;SDS011;6540;50.858;7.232;2023-05-23T07:11:20;4.43;;;4.03;;
12950;SDS011;6540;50.858;7.232;2023-05-23T07:13:46;4.30;;;3.90;;
12950;SDS011;6540;50.858;7.232;2023-05-23T07:16:11;4.20;;;3.87;;
12950;SDS011;6540;50.858;7.232;2023-05-23T07:18:36;5.43;;;4.13;;
12950;SDS011;6540;50.858;7.232;2023-05-23T07:21:02;5.27;;;3.03;;
12950;SDS011;6540;50.858;7.232;2023-05-23T07:23:27;3.70;;;3.40;;
12950;SDS011;6540;50.858;7.232;2023-05-23T07:25:56;3.77;;;3.43;;
12950;SDS011;6540;50.858;7.232;2023-05-23T07:28:22;5.60;;;3.67;;
12950;SDS011;6540;50.858;7.232;2023-05-23T07:30:47;4.23;;;3.40;;
12950;SDS011;6540;50.858;7.232;2023-05-23T07:33:13;3.80;;;3.43;;
12950;SDS011;6540;50.858;7.232;2023-05-23T07:35:38;3.77;;;2.90;;
12950;SDS011;6540;50.858;7.232;2023-05-23T07:38:03;5.83;;;2.67;;
12950;SDS011;6540;50.858;7.232;2023-05-23T07:40:29;2.50;;;2.20;;
12950;SDS011;6540;50.858;7.232;2023-05-23T07:42:54;2.90;;;2.40;;
12950;SDS011;6540;50.858;7.232;2023-05-23T07:45:20;3.93;;;3.53;;
12950;SDS011;6540;50.858;7.232;2023-05-23T07:47:46;4.40;;;3.40;;
12950;SDS011;6540;50.858;7.232;2023-05-23T07:50:11;2.07;;;1.97;;
12950;SDS011;6540;50.858;7.232;2023-05-23T07:52:37;3.70;;;2.87;;
12950;SDS011;6540;50.858;7.232;2023-05-23T07:55:03;2.73;;;2.53;;
12950;SDS011;6540;50.858;7.232;2023-05-23T07:57:29;3.20;;;3.00;;
12950;SDS011;6540;50.858;7.232;2023-05-23T07:59:54;4.57;;;2.90;;
12950;SDS011;6540;50.858;7.232;2023-05-23T08:02:20;4.23;;;3.83;;
12950;SDS011;6540;50.858;7.232;2023-05-23T08:04:45;3.80;;;3.40;;
12950;SDS011;6540;50.858;7.232;2023-05-23T08:07:11;4.87;;;3.63;;
12950;SDS011;6540;50.858;7.232;2023-05-23T08:09:37;3.10;;;2.77;;
12950;SDS011;6540;50.858;7.232;2023-05-23T08:12:04;4.13;;;3.73;;
12950;SDS011;6540;50.858;7.232;2023-05-23T08:14:30;6.00;;;2.83;;
12950;SDS011;6540;50.858;7.232;2023-05-23T08:16:56;4.50;;;3.37;;
12950;SDS011;6540;50.858;7.232;2023-05-23T08:19:21;5.20;;;4.40;;
12950;SDS011;6540;50.858;7.232;2023-05-23T08:21:47;7.47;;;4.23;;
12950;SDS011;6540;50.858;7.232;2023-05-23T08:24:12;3.60;;;3.30;;
12950;SDS011;6540;50.858;7.232;2023-05-23T08:26:38;4.00;;;3.10;;
12950;SDS011;6540;50.858;7.232;2023-05-23T08:29:03;4.67;;;4.17;;
12950;SDS011;6540;50.858;7.232;2023-05-23T08:31:29;5.03;;;4.07;;
12950;SDS011;6540;50.858;7.232;2023-05-23T08:33:58;4.77;;;4.17;;
12950;SDS011;6540;50.858;7.232;2023-05-23T08:36:23;6.70;;;3.90;;
12950;SDS011;6540;50.858;7.232;2023-05-23T08:38:49;4.70;;;4.30;;
12950;SDS011;6540;50.858;7.232;2023-05-23T08:41:19;4.57;;;4.20;;
12950;SDS011;6540;50.858;7.232;2023-05-23T08:43:46;5.07;;;4.57;;
12950;SDS011;6540;50.858;7.232;2023-05-23T08:46:12;3.97;;;3.60;;
12950;SDS011;6540;50.858;7.232;2023-05-23T08:48:38;4.57;;;4.10;;
12950;SDS011;6540;50.858;7.232;2023-05-23T08:51:06;6.23;;;3.60;;
12950;SDS011;6540;50.858;7.232;2023-05-23T08:53:34;5.17;;;3.47;;
12950;SDS011;6540;50.858;7.232;2023-05-23T08:56:01;3.97;;;3.57;;
12950;SDS011;6540;50.858;7.232;2023-05-23T08:58:30;3.00;;;2.80;;
12950;SDS011;6540;50.858;7.232;2023-05-23T09:00:56;3.80;;;3.50;;
12950;SDS011;6540;50.858;7.232;2023-05-23T09:03:25;5.57;;;3.70;;
12950;SDS011;6540;50.858;7.232;2023-05-23T09:05:51;3.90;;;3.60;;
12950;SDS011;6540;50.858;7.232;2023-05-23T09:08:18;5.23;;;3.90;;
12950;SDS011;6540;50.858;7.232;2023-05-23T09:10:44;4.53;;;4.23;;
12950;SDS011;6540;50.858;7.232;2023-05-23T09:13:10;6.93;;;4.63;;
12950;SDS011;6540;50.858;7.232;2023-05-23T09:15:35;5.33;;;4.10;;
12950;SDS011;6540;50.858;7.232;2023-05-23T09:18:01;4.87;;;4.47;;
12950;SDS011;6540;50.858;7.232;2023-05-23T09:20:30;5.93;;;4.27;;
12950;SDS011;6540;50.858;7.232;2023-05-23T09:22:55;5.70;;;4.13;;
12950;SDS011;6540;50.858;7.232;2023-05-23T09:25:21;5.20;;;4.10;;
12950;SDS011;6540;50.858;7.232;2023-05-23T09:27:46;6.10;;;4.07;;
12950;SDS011;6540;50.858;7.232;2023-05-23T09:30:12;5.37;;;4.10;;
12950;SDS011;6540;50.858;7.232;2023-05-23T09:32:38;4.53;;;4.10;;
12950;SDS011;6540;50.858;7.232;2023-05-23T09:35:04;3.27;;;2.97;;
12950;SDS011;6540;50.858;7.232;2023-05-23T09:37:35;4.00;;;3.67;;
12950;SDS011;6540;50.858;7.232;2023-05-23T09:40:08;7.10;;;4.70;;
12950;SDS011;6540;50.858;7.232;2023-05-23T09:42:35;3.63;;;3.33;;
12950;SDS011;6540;50.858;7.232;2023-05-23T09:45:05;4.00;;;3.63;;
12950;SDS011;6540;50.858;7.232;2023-05-23T09:47:31;3.93;;;3.50;;
12950;SDS011;6540;50.858;7.232;2023-05-23T09:49:56;4.17;;;3.80;;
12950;SDS011;6540;50.858;7.232;2023-05-23T09:52:22;3.90;;;3.53;;
12950;SDS011;6540;50.858;7.232;2023-05-23T09:54:47;4.70;;;3.97;;
12950;SDS011;6540;50.858;7.232;2023-05-23T09:57:14;3.30;;;3.00;;
12950;SDS011;6540;50.858;7.232;2023-05-23T09:59:51;4.43;;;3.40;;
12950;SDS011;6540;50.858;7.232;2023-05-23T10:02:23;4.50;;;3.67;;
12950;SDS011;6540;50.858;7.232;2023-05-23T10:05:09;3.20;;;2.93;;
12950;SDS011;6540;50.858;7.232;2023-05-23T10:07:41;4.23;;;3.90;;
12950;SDS011;6540;50.858;7.232;2023-05-23T10:10:07;4.87;;;3.93;;
12950;SDS011;6540;50.858;7.232;2023-05-23T10:12:45;6.10;;;4.80;;
12950;SDS011;6540;50.858;7.232;2023-05-23T10:15:14;6.23;;;5.53;;
12950;SDS011;6540;50.858;7.232;2023-05-23T10:20:31;6.80;;;5.33;;
12950;SDS011;6540;50.858;7.232;2023-05-23T10:22:59;4.90;;;4.50;;
12950;SDS011;6540;50.858;7.232;2023-05-23T10:25:25;4.83;;;4.17;;
12950;SDS011;6540;50.858;7.232;2023-05-23T10:27:53;6.83;;;5.50;;
12950;SDS011;6540;50.858;7.232;2023-05-23T10:30:23;7.13;;;5.50;;
12950;SDS011;6540;50.858;7.232;2023-05-23T10:32:52;5.60;;;5.00;;
12950;SDS011;6540;50.858;7.232;2023-05-23T10:35:37;5.73;;;4.57;;
12950;SDS011;6540;50.858;7.232;2023-05-23T10:46:52;6.10;;;5.50;;
12950;SDS011;6540;50.858;7.232;2023-05-23T10:49:44;8.07;;;6.73;;
12950;SDS011;6540;50.858;7.232;2023-05-23T10:52:16;7.37;;;6.40;;
12950;SDS011;6540;50.858;7.232;2023-05-23T10:54:42;9.70;;;6.87;;
12950;SDS011;6540;50.858;7.232;2023-05-23T10:57:17;8.00;;;6.13;;
12950;SDS011;6540;50.858;7.232;2023-05-23T10:59:49;5.53;;;4.70;;
12950;SDS011;6540;50.858;7.232;2023-05-23T11:02:19;9.57;;;6.60;;
12950;SDS011;6540;50.858;7.232;2023-05-23T11:08:06;7.73;;;5.17;;
12950;SDS011;6540;50.858;7.232;2023-05-23T11:16:27;10.27;;;5.80;;
12950;SDS011;6540;50.858;7.232;2023-05-23T11:21:43;5.07;;;4.50;;
12950;SDS011;6540;50.858;7.232;2023-05-23T11:24:10;4.47;;;3.87;;
12950;SDS011;6540;50.858;7.232;2023-05-23T11:26:35;4.47;;;3.87;;
12950;SDS011;6540;50.858;7.232;2023-05-23T11:29:00;2.47;;;2.03;;
12950;SDS011;6540;50.858;7.232;2023-05-23T11:31:28;3.23;;;2.93;;
12950;SDS011;6540;50.858;7.232;2023-05-23T11:33:54;2.93;;;2.20;;
12950;SDS011;6540;50.858;7.232;2023-05-23T11:36:23;3.73;;;3.00;;
12950;SDS011;6540;50.858;7.232;2023-05-23T11:38:49;2.80;;;2.60;;
12950;SDS011;6540;50.858;7.232;2023-05-23T11:41:16;2.60;;;2.40;;
12950;SDS011;6540;50.858;7.232;2023-05-23T11:43:51;5.73;;;3.80;;
12950;SDS011;6540;50.858;7.232;2023-05-23T11:46:17;6.30;;;5.30;;
12950;SDS011;6540;50.858;7.232;2023-05-23T11:48:46;5.30;;;4.80;;
12950;SDS011;6540;50.858;7.232;2023-05-23T11:51:12;5.03;;;3.83;;
12950;SDS011;6540;50.858;7.232;2023-05-23T11:53:40;8.67;;;4.50;;
12950;SDS011;6540;50.858;7.232;2023-05-23T11:56:06;6.87;;;5.20;;
12950;SDS011;6540;50.858;7.232;2023-05-23T11:58:32;6.53;;;4.60;;
12950;SDS011;6540;50.858;7.232;2023-05-23T12:01:01;9.63;;;6.80;;
12950;SDS011;6540;50.858;7.232;2023-05-23T12:03:34;6.37;;;5.07;;
12950;SDS011;6540;50.858;7.232;2023-05-23T12:06:18;6.17;;;4.60;;
12950;SDS011;6540;50.858;7.232;2023-05-23T12:08:48;4.97;;;4.27;;
12950;SDS011;6540;50.858;7.232;2023-05-23T12:11:15;5.20;;;4.70;;
12950;SDS011;6540;50.858;7.232;2023-05-23T12:13:41;6.37;;;5.23;;
12950;SDS011;6540;50.858;7.232;2023-05-23T12:16:07;6.30;;;5.57;;
12950;SDS011;6540;50.858;7.232;2023-05-23T12:18:33;11.90;;;7.93;;
12950;SDS011;6540;50.858;7.232;2023-05-23T12:21:02;9.17;;;5.80;;
12950;SDS011;6540;50.858;7.232;2023-05-23T12:23:29;7.60;;;5.63;;
12950;SDS011;6540;50.858;7.232;2023-05-23T12:25:55;7.07;;;3.93;;
12950;SDS011;6540;50.858;7.232;2023-05-23T12:31:07;4.87;;;4.03;;
12950;SDS011;6540;50.858;7.232;2023-05-23T12:36:26;5.97;;;3.07;;
12950;SDS011;6540;50.858;7.232;2023-05-23T12:39:00;3.10;;;2.83;;
12950;SDS011;6540;50.858;7.232;2023-05-23T12:41:28;3.37;;;2.53;;
12950;SDS011;6540;50.858;7.232;2023-05-23T12:44:00;1.60;;;1.50;;
12950;SDS011;6540;50.858;7.232;2023-05-23T12:46:26;3.03;;;2.07;;
12950;SDS011;6540;50.858;7.232;2023-05-23T12:48:52;2.10;;;1.87;;
12950;SDS011;6540;50.858;7.232;2023-05-23T12:51:19;1.47;;;1.37;;
12950;SDS011;6540;50.858;7.232;2023-05-23T12:53:45;4.07;;;1.57;;
12950;SDS011;6540;50.858;7.232;2023-05-23T12:56:13;1.73;;;1.53;;
12950;SDS011;6540;50.858;7.232;2023-05-23T12:58:39;1.03;;;1.03;;
12950;SDS011;6540;50.858;7.232;2023-05-23T13:01:04;1.53;;;1.43;;
12950;SDS011;6540;50.858;7.232;2023-05-23T13:03:33;2.10;;;1.90;;
12950;SDS011;6540;50.858;7.232;2023-05-23T13:05:58;1.43;;;1.17;;
12950;SDS011;6540;50.858;7.232;2023-05-23T13:08:25;2.07;;;1.63;;
12950;SDS011;6540;50.858;7.232;2023-05-23T13:11:00;1.77;;;1.63;;
12950;SDS011;6540;50.858;7.232;2023-05-23T13:13:25;1.27;;;1.17;;
12950;SDS011;6540;50.858;7.232;2023-05-23T13:15:51;2.03;;;1.83;;
12950;SDS011;6540;50.858;7.232;2023-05-23T13:18:16;1.70;;;1.60;;
12950;SDS011;6540;50.858;7.232;2023-05-23T13:20:42;2.33;;;2.17;;
12950;SDS011;6540;50.858;7.232;2023-05-23T13:23:07;2.50;;;2.30;;
12950;SDS011;6540;50.858;7.232;2023-05-23T13:25:33;2.07;;;1.97;;
12950;SDS011;6540;50.858;7.232;2023-05-23T13:27:59;2.80;;;2.50;;
12950;SDS011;6540;50.858;7.232;2023-05-23T13:30:26;2.13;;;1.93;;
12950;SDS011;6540;50.858;7.232;2023-05-23T13:32:51;4.60;;;2.50;;
12950;SDS011;6540;50.858;7.232;2023-05-23T13:35:17;3.03;;;2.40;;
12950;SDS011;6540;50.858;7.232;2023-05-23T13:37:42;3.27;;;2.97;;
12950;SDS011;6540;50.858;7.232;2023-05-23T13:40:10;3.50;;;3.13;;
12950;SDS011;6540;50.858;7.232;2023-05-23T13:42:37;2.70;;;2.37;;
12950;SDS011;6540;50.858;7.232;2023-05-23T13:45:03;3.27;;;3.07;;
12950;SDS011;6540;50.858;7.232;2023-05-23T13:47:29;2.93;;;2.73;;
12950;SDS011;6540;50.858;7.232;2023-05-23T13:49:54;2.97;;;2.40;;
12950;SDS011;6540;50.858;7.232;2023-05-23T13:52:20;1.00;;;1.00;;
12950;SDS011;6540;50.858;7.232;2023-05-23T13:54:46;1.80;;;1.47;;
12950;SDS011;6540;50.858;7.232;2023-05-23T13:57:11;1.80;;;1.70;;
12950;SDS011;6540;50.858;7.232;2023-05-23T13:59:37;2.97;;;2.57;;
12950;SDS011;6540;50.858;7.232;2023-05-23T14:02:02;3.50;;;2.53;;
12950;SDS011;6540;50.858;7.232;2023-05-23T14:04:27;2.63;;;2.43;;
12950;SDS011;6540;50.858;7.232;2023-05-23T14:06:53;2.87;;;2.67;;
12950;SDS011;6540;50.858;7.232;2023-05-23T14:09:21;2.90;;;2.60;;
12950;SDS011;6540;50.858;7.232;2023-05-23T14:11:47;3.37;;;3.07;;
12950;SDS011;6540;50.858;7.232;2023-05-23T14:14:12;2.80;;;2.60;;
12950;SDS011;6540;50.858;7.232;2023-05-23T14:16:41;2.20;;;2.10;;
12950;SDS011;6540;50.858;7.232;2023-05-23T14:19:06;3.27;;;2.97;;
12950;SDS011;6540;50.858;7.232;2023-05-23T14:21:32;2.80;;;2.50;;
12950;SDS011;6540;50.858;7.232;2023-05-23T14:23:57;1.87;;;1.77;;
12950;SDS011;6540;50.858;7.232;2023-05-23T14:26:23;2.97;;;2.10;;
12950;SDS011;6540;50.858;7.232;2023-05-23T14:28:48;1.80;;;1.70;;
12950;SDS011;6540;50.858;7.232;2023-05-23T14:31:13;2.63;;;1.90;;
12950;SDS011;6540;50.858;7.232;2023-05-23T14:33:39;1.83;;;1.73;;
12950;SDS011;6540;50.858;7.232;2023-05-23T14:36:04;2.37;;;2.17;;
12950;SDS011;6540;50.858;7.232;2023-05-23T14:38:30;3.03;;;2.73;;
12950;SDS011;6540;50.858;7.232;2023-05-23T14:40:55;2.63;;;2.43;;
12950;SDS011;6540;50.858;7.232;2023-05-23T14:43:22;3.50;;;2.90;;
12950;SDS011;6540;50.858;7.232;2023-05-23T14:45:48;2.63;;;2.30;;
12950;SDS011;6540;50.858;7.232;2023-05-23T14:48:13;4.10;;;3.27;;
12950;SDS011;6540;50.858;7.232;2023-05-23T14:50:39;3.07;;;2.70;;
12950;SDS011;6540;50.858;7.232;2023-05-23T14:53:04;3.23;;;2.17;;
12950;SDS011;6540;50.858;7.232;2023-05-23T14:55:30;2.77;;;2.57;;
12950;SDS011;6540;50.858;7.232;2023-05-23T14:57:55;2.87;;;1.77;;
12950;SDS011;6540;50.858;7.232;2023-05-23T15:00:22;2.23;;;2.03;;
12950;SDS011;6540;50.858;7.232;2023-05-23T15:02:48;1.87;;;1.77;;
12950;SDS011;6540;50.858;7.232;2023-05-23T15:05:17;2.23;;;2.03;;
12950;SDS011;6540;50.858;7.232;2023-05-23T15:07:45;2.80;;;1.50;;
12950;SDS011;6540;50.858;7.232;2023-05-23T15:10:11;1.53;;;1.43;;
12950;SDS011;6540;50.858;7.232;2023-05-23T15:12:36;1.60;;;1.50;;
12950;SDS011;6540;50.858;7.232;2023-05-23T15:15:02;1.30;;;1.20;;
12950;SDS011;6540;50.858;7.232;2023-05-23T15:17:31;4.27;;;1.50;;
12950;SDS011;6540;50.858;7.232;2023-05-23T15:19:57;1.17;;;1.07;;
12950;SDS011;6540;50.858;7.232;2023-05-23T15:22:23;1.80;;;1.03;;
12950;SDS011;6540;50.858;7.232;2023-05-23T15:24:49;0.97;;;0.97;;
12950;SDS011;6540;50.858;7.232;2023-05-23T15:27:30;1.50;;;1.27;;
12950;SDS011;6540;50.858;7.232;2023-05-23T15:30:00;1.33;;;0.80;;